createdAt,value
2019-04-23T00:04:06.634Z,1.10
2019-04-23T00:09:20.472Z,1.40
2019-04-23T00:14:38.484Z,1.13
2019-04-23T00:19:32.979Z,0.97
2019-04-23T00:25:21.900Z,1.47
2019-04-23T00:29:56.603Z,1.20
2019-04-23T00:35:02.638Z,1.37
2019-04-23T00:40:02.729Z,1.40
2019-04-23T00:45:12.400Z,1.40
2019-04-23T00:50:20.750Z,1.20
2019-04-23T00:55:21.198Z,1.47
2019-04-23T01:00:33.891Z,1.53
2019-04-23T01:05:37.335Z,1.40
2019-04-23T01:10:56.483Z,1.40
2019-04-23T01:15:59.564Z,1.30
2019-04-23T01:20:53.534Z,1.60
2019-04-23T01:25:58.852Z,1.30
2019-04-23T01:31:20.101Z,1.63
2019-04-23T01:36:28.370Z,1.57
2019-04-23T01:41:33.650Z,1.93
2019-04-23T01:46:42.060Z,1.67
2019-04-23T01:51:49.576Z,1.57
2019-04-23T01:56:50.999Z,1.70
2019-04-23T02:06:57.999Z,1.93
2019-04-23T02:12:07.495Z,1.90
2019-04-23T02:17:12.076Z,1.67
2019-04-23T02:22:25.249Z,2.07
2019-04-23T02:27:31.738Z,2.03
2019-04-23T02:32:42.233Z,1.83
2019-04-23T02:37:54.434Z,2.17
2019-04-23T02:42:49.695Z,2.00
2019-04-23T02:48:08.979Z,2.20
2019-04-23T02:53:10.990Z,2.27
2019-04-23T03:13:32.163Z,2.40
2019-04-23T03:29:16.864Z,2.37
2019-04-23T03:34:13.629Z,2.70
2019-04-23T03:38:56.308Z,2.70
2019-04-23T03:44:22.765Z,2.73
2019-04-23T03:49:19.541Z,2.77
2019-04-23T03:59:39.346Z,3.47
2019-04-23T04:04:33.309Z,3.03
2019-04-23T04:14:56.798Z,3.10
2019-04-23T04:25:02.820Z,3.27
2019-04-23T04:35:18.715Z,3.73
2019-04-23T04:45:30.387Z,3.23
2019-04-23T04:50:19.419Z,4.03
2019-04-23T04:55:28.378Z,3.87
2019-04-23T05:11:04.760Z,4.73
2019-04-23T05:15:50.074Z,5.30
2019-04-23T05:26:02.841Z,4.87
2019-04-23T05:31:12.381Z,5.07
2019-04-23T05:36:24.755Z,4.30
2019-04-23T05:46:27.826Z,5.60
2019-04-23T05:56:32.376Z,5.47
2019-04-23T06:07:14.721Z,6.00
2019-04-23T06:32:07.933Z,6.53
2019-04-23T06:37:09.814Z,6.83
2019-04-23T06:42:11.613Z,6.70
2019-04-23T06:47:20.096Z,5.90
2019-04-23T06:52:21.768Z,6.60
2019-04-23T06:57:26.978Z,6.63
2019-04-23T07:02:37.651Z,6.63
2019-04-23T07:08:00.413Z,6.93
2019-04-23T07:12:50.749Z,7.83
2019-04-23T07:17:51.990Z,8.07
2019-04-23T07:22:56.965Z,6.67
2019-04-23T07:28:06.478Z,7.70
2019-04-23T07:33:11.543Z,7.67
2019-04-23T07:38:43.905Z,7.07
2019-04-23T07:44:08.576Z,7.73
2019-04-23T07:49:06.753Z,7.57
2019-04-23T07:54:10.991Z,7.83
2019-04-23T07:59:20.645Z,7.70
2019-04-23T08:04:16.525Z,6.43
2019-04-23T08:09:29.324Z,7.40
2019-04-23T08:14:35.241Z,7.50
2019-04-23T08:19:42.469Z,7.03
2019-04-23T08:24:57.281Z,6.73
2019-04-23T08:29:55.682Z,8.50
2019-04-23T08:40:06.632Z,7.43
2019-04-23T08:50:21.667Z,7.93
2019-04-23T08:55:32.587Z,7.93
2019-04-23T09:00:37.318Z,6.87
2019-04-23T09:05:48.226Z,7.80
2019-04-23T09:10:54.737Z,7.73
2019-04-23T09:20:55.260Z,8.03
2019-04-23T09:31:18.809Z,7.00
2019-04-23T09:36:45.595Z,7.67
2019-04-23T09:41:48.288Z,7.97
2019-04-23T09:47:14.290Z,7.40
2019-04-23T09:52:21.776Z,8.27
2019-04-23T09:57:17.203Z,7.07
2019-04-23T10:02:17.545Z,8.23
2019-04-23T10:07:17.980Z,8.17
2019-04-23T10:12:09.974Z,8.33
2019-04-23T10:17:16.039Z,7.50
2019-04-23T10:22:19.706Z,7.00
2019-04-23T10:27:23.303Z,7.33
2019-04-23T10:32:27.339Z,7.57
2019-04-23T10:37:41.909Z,7.57
2019-04-23T10:42:40.368Z,7.53
2019-04-23T10:48:31.749Z,6.37
2019-04-23T10:58:32.090Z,7.27
2019-04-23T11:08:36.825Z,6.63
2019-04-23T11:13:53.014Z,7.50
2019-04-23T11:24:17.032Z,7.07
2019-04-23T11:29:16.814Z,7.47
2019-04-23T11:34:20.253Z,6.90
2019-04-23T11:39:16.683Z,7.37
2019-04-23T11:44:28.908Z,6.60
2019-04-23T11:49:47.779Z,6.50
2019-04-23T11:59:53.459Z,7.07
2019-04-23T12:04:57.326Z,7.97
2019-04-23T12:10:19.846Z,7.60
2019-04-23T12:15:07.357Z,6.93
2019-04-23T12:30:30.199Z,8.27
2019-04-23T12:40:25.030Z,7.63
2019-04-23T12:45:35.664Z,6.97
2019-04-23T12:50:50.101Z,7.30
2019-04-23T13:00:48.394Z,6.60
2019-04-23T13:05:42.248Z,6.73
2019-04-23T13:10:59.039Z,6.93
2019-04-23T13:16:12.744Z,6.93
2019-04-23T13:21:29.866Z,7.30
2019-04-23T13:26:32.102Z,6.80
2019-04-23T13:31:42.787Z,7.37
2019-04-23T13:41:48.247Z,6.77
2019-04-23T13:46:36.813Z,6.77
2019-04-23T13:51:43.542Z,6.93
2019-04-23T14:01:46.644Z,6.13
2019-04-23T14:06:55.491Z,6.50
2019-04-23T14:11:58.372Z,5.90
2019-04-23T14:17:27.592Z,5.00
2019-04-23T14:22:34.049Z,5.00
2019-04-23T14:27:28.107Z,4.87
2019-04-23T14:32:46.939Z,4.47
2019-04-23T14:37:45.782Z,5.63
2019-04-23T14:42:47.607Z,4.53
2019-04-23T14:52:57.038Z,4.30
2019-04-23T14:58:02.599Z,4.77
2019-04-23T15:03:01.521Z,4.67
2019-04-23T15:08:06.261Z,4.40
2019-04-23T15:13:12.193Z,4.47
2019-04-23T15:18:35.122Z,5.00
2019-04-23T15:23:59.129Z,4.90
2019-04-23T15:28:16.765Z,4.43
2019-04-23T15:33:56.516Z,5.00
2019-04-23T15:49:07.294Z,4.57
2019-04-23T16:03:49.158Z,5.10
2019-04-23T16:09:09.714Z,4.63
2019-04-23T16:14:36.608Z,4.70
2019-04-23T16:19:46.023Z,4.57
2019-04-23T16:24:49.062Z,4.40
2019-04-23T16:30:06.316Z,5.03
2019-04-23T16:35:11.974Z,5.53
2019-04-23T16:40:13.795Z,5.83
2019-04-23T16:45:15.203Z,4.93
2019-04-23T16:50:18.340Z,5.87
2019-04-23T16:55:26.982Z,5.33
2019-04-23T17:00:55.870Z,5.53
2019-04-23T17:10:42.802Z,5.03
2019-04-23T17:15:53.831Z,4.80
2019-04-23T17:20:51.934Z,4.93
2019-04-23T17:25:55.667Z,5.13
2019-04-23T17:31:26.593Z,4.60
2019-04-23T17:41:42.943Z,5.07
2019-04-23T17:46:46.037Z,5.47
2019-04-23T17:51:50.921Z,6.17
2019-04-23T17:57:01.443Z,9.03
2019-04-23T18:02:36.711Z,8.80
2019-04-23T18:07:07.528Z,8.90
2019-04-23T18:12:21.937Z,5.57
2019-04-23T18:17:20.812Z,5.80
2019-04-23T18:22:35.721Z,5.40
2019-04-23T18:27:32.977Z,6.20
2019-04-23T18:38:13.862Z,6.00
2019-04-23T18:43:08.765Z,6.30
2019-04-23T19:10:20.276Z,7.43
2019-04-23T19:15:35.976Z,8.33
2019-04-23T19:21:00.935Z,7.80
2019-04-23T19:25:50.194Z,8.37
2019-04-23T19:31:02.092Z,7.83
2019-04-23T19:41:33.159Z,7.73
2019-04-23T19:51:44.204Z,8.93
2019-04-23T20:02:07.413Z,7.60
2019-04-23T20:12:28.414Z,9.20
2019-04-23T20:38:09.675Z,8.97
2019-04-23T20:42:49.731Z,8.57
2019-04-23T20:47:51.509Z,8.60
2019-04-23T20:52:54.774Z,8.73
2019-04-23T20:58:14.252Z,8.80
2019-04-23T21:13:47.519Z,8.50
2019-04-23T21:23:50.143Z,33.80
2019-04-23T21:29:02.586Z,9.27
2019-04-23T21:39:26.894Z,8.63
2019-04-23T21:44:35.587Z,9.00
2019-04-23T21:49:37.387Z,9.37
2019-04-23T21:54:39.025Z,9.17
2019-04-23T21:59:35.240Z,8.47
2019-04-23T22:04:44.979Z,8.90
2019-04-23T22:09:56.334Z,10.20
2019-04-23T22:15:06.871Z,10.10
2019-04-23T22:20:11.929Z,8.87
2019-04-23T22:25:11.449Z,9.53
2019-04-23T22:30:04.820Z,9.60
2019-04-23T22:35:10.605Z,8.80
2019-04-23T22:40:16.324Z,9.57
2019-04-23T22:45:28.339Z,10.10
2019-04-23T22:50:31.398Z,10.43
2019-04-23T22:55:40.830Z,10.20
2019-04-23T23:00:46.746Z,11.23
2019-04-23T23:21:12.314Z,10.67
2019-04-23T23:26:26.766Z,10.13
2019-04-23T23:31:22.468Z,10.57
2019-04-23T23:36:28.132Z,10.53
2019-04-23T23:41:33.790Z,11.77
2019-04-23T23:51:54.001Z,11.33
2019-04-23T23:56:58.757Z,10.40
